Time;durP1;ratioP1;P1;durP2;ratioP2;P2;SDS_P1;SDS_P2;PMS_P1;PMS_P2;Temp;Humidity;BMP_temperature;BMP_pressure;BME280_temperature;BME280_humidity;BME280_pressure;Samples;Min_cycle;Max_cycle;Signal;HPM_P1;HPM_P2
2023/09/12 00:00:09;;;;;;;1999.90;999.90;;;20.90;99.90;;;;;;5086160;28;20440;-72
2023/09/12 00:02:36;;;;;;;1999.90;999.90;;;21.00;99.90;;;;;;5087123;28;20973;-74
2023/09/12 00:05:04;;;;;;;1999.90;999.90;;;21.10;99.90;;;;;;5085974;28;20430;-73
2023/09/12 00:07:30;;;;;;;1999.90;999.90;;;21.00;99.90;;;;;;5090199;28;20417;-74
2023/09/12 00:09:58;;;;;;;1999.90;999.90;;;21.10;99.90;;;;;;5090032;28;20414;-73
2023/09/12 00:12:25;;;;;;;1999.90;999.90;;;21.10;99.90;;;;;;5087317;28;20429;-73
2023/09/12 00:14:52;;;;;;;1999.90;999.90;;;21.00;99.90;;;;;;5083965;28;20422;-72
2023/09/12 00:17:19;;;;;;;1999.90;999.90;;;21.00;99.90;;;;;;5081922;28;20402;-73
2023/09/12 00:19:46;;;;;;;1999.90;999.90;;;21.00;99.90;;;;;;5087594;28;20406;-73
2023/09/12 00:22:12;;;;;;;1999.90;999.90;;;21.00;99.90;;;;;;5089979;28;20429;-73
2023/09/12 00:24:39;;;;;;;1999.90;999.90;;;20.80;99.90;;;;;;5087041;28;20440;-74
2023/09/12 00:27:07;;;;;;;1999.90;999.90;;;21.00;99.90;;;;;;5078400;28;20408;-73
2023/09/12 00:29:34;;;;;;;1999.90;999.90;;;21.40;99.90;;;;;;5070008;28;20411;-73
2023/09/12 00:32:01;;;;;;;1999.90;999.90;;;21.00;99.90;;;;;;5069538;28;20419;-73
2023/09/12 00:34:27;;;;;;;1999.90;999.90;;;21.00;99.90;;;;;;5075426;28;20432;-72
2023/09/12 00:36:54;;;;;;;1999.90;999.90;;;21.00;99.90;;;;;;5077619;28;20418;-73
2023/09/12 00:39:21;;;;;;;1999.90;999.90;;;21.00;99.90;;;;;;5069672;28;20411;-73
2023/09/12 00:41:48;;;;;;;1999.90;999.90;;;21.00;99.90;;;;;;5069708;28;20408;-72
2023/09/12 00:44:16;;;;;;;1999.90;999.90;;;20.90;99.90;;;;;;5070035;28;20416;-72
2023/09/12 00:46:45;;;;;;;1999.90;999.90;;;20.50;99.90;;;;;;5074413;28;20431;-73
2023/09/12 00:49:12;;;;;;;1999.90;999.90;;;20.40;99.90;;;;;;5073964;28;20412;-73
2023/09/12 00:51:40;;;;;;;1999.90;999.90;;;20.40;99.90;;;;;;5074015;28;20756;-73
2023/09/12 00:54:07;;;;;;;1999.90;999.90;;;20.50;99.90;;;;;;5086573;28;20815;-72
2023/09/12 00:56:34;;;;;;;1999.90;999.90;;;20.70;99.90;;;;;;5086639;28;20429;-72
2023/09/12 00:59:02;;;;;;;1999.90;999.90;;;20.80;99.90;;;;;;5086881;28;20433;-73
2023/09/12 01:01:32;;;;;;;1999.90;999.90;;;20.70;99.90;;;;;;5083924;28;21111;-72
2023/09/12 01:03:59;;;;;;;1999.90;999.90;;;20.60;99.90;;;;;;5088275;28;20486;-72
2023/09/12 01:06:28;;;;;;;1999.90;999.90;;;20.60;99.90;;;;;;5093424;28;20433;-72
2023/09/12 01:08:56;;;;;;;1999.90;999.90;;;20.60;99.90;;;;;;5127814;22;20432;-74
2023/09/12 01:11:23;;;;;;;1999.90;999.90;;;20.60;99.90;;;;;;5084759;28;20422;-75
2023/09/12 01:13:50;;;;;;;1999.90;999.90;;;20.60;99.90;;;;;;5092509;28;20454;-75
2023/09/12 01:16:17;;;;;;;1999.90;999.90;;;20.70;99.90;;;;;;5092754;28;20915;-72
2023/09/12 01:18:45;;;;;;;1999.90;999.90;;;20.70;99.90;;;;;;5087163;28;20448;-77
2023/09/12 01:21:39;;;;;;;1999.90;999.90;;;20.60;99.90;;;;;;5086729;28;20467;-74
2023/09/12 01:24:23;;;;;;;1999.90;999.90;;;20.50;99.90;;;;;;5083152;28;20436;-74
2023/09/12 01:27:04;;;;;;;1999.90;999.90;;;20.60;99.90;;;;;;5090935;28;22444;-72
2023/09/12 01:29:32;;;;;;;1999.90;999.90;;;20.60;99.90;;;;;;5091442;28;20421;-74
2023/09/12 01:32:01;;;;;;;1999.90;999.90;;;20.40;99.90;;;;;;5087061;28;20427;-75
2023/09/12 01:34:28;;;;;;;1999.90;999.90;;;20.60;99.90;;;;;;5092167;28;20898;-72
2023/09/12 01:36:54;;;;;;;1999.90;999.90;;;20.30;99.90;;;;;;5087237;28;20425;-76
2023/09/12 01:39:21;;;;;;;1999.90;999.90;;;20.30;99.90;;;;;;5087333;28;20441;-76
2023/09/12 01:41:50;;;;;;;1999.90;999.90;;;20.20;99.90;;;;;;5092592;28;20438;-71
2023/09/12 01:44:18;;;;;;;1999.90;999.90;;;20.20;99.90;;;;;;5091791;28;20433;-74
2023/09/12 01:46:49;;;;;;;1999.90;999.90;;;20.20;99.90;;;;;;5089257;28;20425;-74
2023/09/12 01:49:18;;;;;;;1999.90;999.90;;;20.30;99.90;;;;;;5083232;28;20451;-74
2023/09/12 01:51:45;;;;;;;1999.90;999.90;;;20.30;99.90;;;;;;5091809;28;20430;-74
2023/09/12 01:54:13;;;;;;;1999.90;999.90;;;20.70;99.90;;;;;;5092107;28;20457;-75
2023/09/12 01:56:41;;;;;;;1999.90;999.90;;;20.20;99.90;;;;;;5090251;28;20433;-73
2023/09/12 01:59:08;;;;;;;1999.90;999.90;;;20.10;99.90;;;;;;5090098;28;20429;-74
2023/09/12 02:01:35;;;;;;;1999.90;999.90;;;20.10;99.90;;;;;;5087964;28;20433;-74
2023/09/12 02:04:08;;;;;;;1999.90;999.90;;;20.00;99.90;;;;;;5091592;28;20432;-76
2023/09/12 02:06:35;;;;;;;1999.90;999.90;;;19.90;99.90;;;;;;5088311;28;20862;-74
2023/09/12 02:09:02;;;;;;;1999.90;999.90;;;19.80;99.90;;;;;;5090811;28;20491;-74
2023/09/12 02:11:28;;;;;;;1999.90;999.90;;;19.90;99.90;;;;;;5091713;28;20854;-71
2023/09/12 02:13:55;;;;;;;1999.90;999.90;;;20.00;99.90;;;;;;5090846;28;20457;-74
2023/09/12 02:16:22;;;;;;;1999.90;999.90;;;19.80;99.90;;;;;;5088756;28;20433;-73
2023/09/12 02:18:49;;;;;;;1999.90;999.90;;;19.70;99.90;;;;;;5089181;28;20429;-74
2023/09/12 02:21:17;;;;;;;1999.90;999.90;;;19.70;99.90;;;;;;5087502;28;20438;-73
2023/09/12 02:23:44;;;;;;;1999.90;999.90;;;19.50;99.90;;;;;;5090676;28;20456;-75
2023/09/12 02:26:10;;;;;;;1999.90;999.90;;;19.60;99.90;;;;;;5091990;28;20477;-73
2023/09/12 02:28:37;;;;;;;1999.90;999.90;;;19.80;99.90;;;;;;5090874;28;20513;-73
2023/09/12 02:31:04;;;;;;;1999.90;999.90;;;19.80;99.90;;;;;;5088937;28;20433;-72
2023/09/12 02:33:31;;;;;;;1999.90;999.90;;;19.70;99.90;;;;;;5090066;28;20430;-73
2023/09/12 02:35:57;;;;;;;1999.90;999.90;;;19.70;99.90;;;;;;5081385;28;20437;-74
2023/09/12 02:38:25;;;;;;;1999.90;999.90;;;19.70;99.90;;;;;;5091129;28;20440;-71
2023/09/12 02:40:52;;;;;;;1999.90;999.90;;;19.70;99.90;;;;;;5090033;28;20429;-73
2023/09/12 02:43:19;;;;;;;1999.90;999.90;;;19.60;99.90;;;;;;5081854;28;20479;-74
2023/09/12 02:45:46;;;;;;;1999.90;999.90;;;19.60;99.90;;;;;;5088692;28;20426;-73
2023/09/12 02:48:12;;;;;;;1999.90;999.90;;;19.60;99.90;;;;;;5090837;28;20441;-74
2023/09/12 02:50:39;;;;;;;1999.90;999.90;;;19.70;99.90;;;;;;5083717;28;20426;-74
2023/09/12 02:53:06;;;;;;;1999.90;999.90;;;19.70;99.90;;;;;;5090312;28;20426;-74
2023/09/12 02:55:34;;;;;;;1999.90;999.90;;;19.80;99.90;;;;;;5088906;28;20430;-73
2023/09/12 02:58:01;;;;;;;1999.90;999.90;;;19.90;99.90;;;;;;5091352;28;20425;-71
2023/09/12 03:00:28;;;;;;;1999.90;999.90;;;19.80;99.90;;;;;;5085069;28;20897;-73
2023/09/12 03:02:55;;;;;;;1999.90;999.90;;;20.00;99.90;;;;;;5085618;28;20425;-71
2023/09/12 03:05:21;;;;;;;1999.90;999.90;;;20.10;99.90;;;;;;5082168;28;20915;-72
2023/09/12 03:07:48;;;;;;;1999.90;999.90;;;20.10;99.90;;;;;;5082062;28;20436;-74
2023/09/12 03:10:15;;;;;;;1999.90;999.90;;;20.20;99.90;;;;;;5091375;28;20441;-74
2023/09/12 03:12:43;;;;;;;1999.90;999.90;;;20.00;99.90;;;;;;5083393;28;20414;-73
2023/09/12 03:15:11;;;;;;;1999.90;999.90;;;20.10;99.90;;;;;;5087735;28;20418;-74
2023/09/12 03:17:38;;;;;;;1999.90;999.90;;;19.80;99.90;;;;;;5086262;28;20414;-72
2023/09/12 03:20:06;;;;;;;1999.90;999.90;;;19.90;99.90;;;;;;5083345;28;21005;-73
2023/09/12 03:22:37;;;;;;;1999.90;999.90;;;20.10;99.90;;;;;;5086885;28;20855;-73
2023/09/12 03:25:06;;;;;;;1999.90;999.90;;;20.60;99.90;;;;;;5076364;28;20526;-73
2023/09/12 03:27:33;;;;;;;1999.90;999.90;;;20.50;99.90;;;;;;5075155;28;20837;-73
2023/09/12 03:30:01;;;;;;;1999.90;999.90;;;20.50;99.90;;;;;;5071023;28;20418;-73
2023/09/12 03:32:28;;;;;;;1999.90;999.90;;;20.50;99.90;;;;;;5079434;28;20420;-74
2023/09/12 03:34:55;;;;;;;1999.90;999.90;;;20.60;99.90;;;;;;5089190;28;20426;-71
2023/09/12 03:37:21;;;;;;;1999.90;999.90;;;20.50;99.90;;;;;;5088309;28;20425;-73
2023/09/12 03:39:48;;;;;;;1999.90;999.90;;;20.50;99.90;;;;;;5086128;28;20430;-76
2023/09/12 03:42:15;;;;;;;1999.90;999.90;;;20.50;99.90;;;;;;5089521;28;20507;-72
2023/09/12 03:44:41;;;;;;;1999.90;999.90;;;20.60;99.90;;;;;;5089843;28;20430;-72
2023/09/12 03:47:10;;;;;;;1999.90;999.90;;;20.60;99.90;;;;;;5088160;28;20430;-73
2023/09/12 03:49:36;;;;;;;1999.90;999.90;;;20.60;99.90;;;;;;5082495;28;20572;-73
2023/09/12 03:52:04;;;;;;;1999.90;999.90;;;20.60;99.90;;;;;;5090092;28;20429;-73
2023/09/12 03:54:30;;;;;;;1999.90;999.90;;;20.40;99.90;;;;;;5083601;28;20864;-74
2023/09/12 03:56:57;;;;;;;1999.90;999.90;;;20.40;99.90;;;;;;5089990;28;20796;-73
2023/09/12 03:59:24;;;;;;;1999.90;999.90;;;20.40;99.90;;;;;;5083632;28;20431;-73
2023/09/12 04:01:51;;;;;;;1999.90;999.90;;;20.40;99.90;;;;;;5084184;28;20430;-71
2023/09/12 04:04:19;;;;;;;1999.90;999.90;;;20.40;99.90;;;;;;5080134;28;20433;-71
2023/09/12 04:06:46;;;;;;;1999.90;999.90;;;20.50;99.90;;;;;;5079709;28;20440;-73
2023/09/12 04:09:13;;;;;;;1999.90;999.90;;;20.60;99.90;;;;;;5089247;28;20435;-73
2023/09/12 04:11:40;;;;;;;1999.90;999.90;;;20.50;99.90;;;;;;5088215;28;20433;-73
2023/09/12 04:14:07;;;;;;;1999.90;999.90;;;20.40;99.90;;;;;;5081021;28;20425;-74
2023/09/12 04:16:33;;;;;;;1999.90;999.90;;;20.40;99.90;;;;;;5088878;28;20894;-72
2023/09/12 04:19:00;;;;;;;1999.90;999.90;;;20.40;99.90;;;;;;5086607;28;20435;-74
2023/09/12 04:21:28;;;;;;;1999.90;999.90;;;20.30;99.90;;;;;;5080897;28;20431;-73
2023/09/12 04:23:55;;;;;;;1999.90;999.90;;;20.20;99.90;;;;;;5081541;28;20437;-73
2023/09/12 04:26:22;;;;;;;1999.90;999.90;;;20.20;99.90;;;;;;5089226;28;20430;-73
2023/09/12 04:28:49;;;;;;;1999.90;999.90;;;20.00;99.90;;;;;;5087634;28;20509;-72
2023/09/12 04:31:15;;;;;;;1999.90;999.90;;;20.50;99.90;;;;;;5087167;28;20642;-73
2023/09/12 04:33:42;;;;;;;1999.90;999.90;;;20.50;99.90;;;;;;5082102;28;20432;-73
2023/09/12 04:36:09;;;;;;;1999.90;999.90;;;20.50;99.90;;;;;;5085291;28;20501;-73
2023/09/12 04:38:37;;;;;;;1999.90;999.90;;;20.50;99.90;;;;;;5083637;28;20444;-74
2023/09/12 04:41:06;;;;;;;1999.90;999.90;;;20.50;99.90;;;;;;5084022;28;20426;-71
2023/09/12 04:43:33;;;;;;;1999.90;999.90;;;20.50;99.90;;;;;;5092973;28;20429;-71
2023/09/12 04:46:00;;;;;;;1999.90;999.90;;;20.40;99.90;;;;;;5088113;28;20434;-73
2023/09/12 04:48:27;;;;;;;1999.90;999.90;;;20.50;99.90;;;;;;5087008;28;20431;-73
2023/09/12 04:50:53;;;;;;;1999.90;999.90;;;20.50;99.90;;;;;;5085953;28;20436;-72
2023/09/12 04:53:20;;;;;;;1999.90;999.90;;;20.60;99.90;;;;;;5089884;28;20452;-73
2023/09/12 04:55:48;;;;;;;1999.90;999.90;;;20.50;99.90;;;;;;5092936;28;20815;-73
2023/09/12 04:58:15;;;;;;;1999.90;999.90;;;20.50;99.90;;;;;;5089374;28;20887;-71
2023/09/12 05:00:42;;;;;;;1999.90;999.90;;;20.50;99.90;;;;;;5089403;28;21036;-73
2023/09/12 05:03:08;;;;;;;1999.90;999.90;;;20.30;99.90;;;;;;5084431;28;20437;-73
2023/09/12 05:05:36;;;;;;;1999.90;999.90;;;20.30;99.90;;;;;;5087731;28;20427;-69
2023/09/12 05:08:03;;;;;;;1999.90;999.90;;;20.30;99.90;;;;;;5086204;28;20503;-74
2023/09/12 05:10:30;;;;;;;1999.90;999.90;;;20.50;99.90;;;;;;5088721;28;20434;-73
2023/09/12 05:12:58;;;;;;;1999.90;999.90;;;20.50;99.90;;;;;;5090362;28;20414;-73
2023/09/12 05:15:25;;;;;;;1999.90;999.90;;;20.40;99.90;;;;;;5073951;28;20411;-76
2023/09/12 05:17:52;;;;;;;1999.90;999.90;;;20.50;99.90;;;;;;5073887;28;20430;-77
2023/09/12 05:20:18;;;;;;;1999.90;999.90;;;20.50;99.90;;;;;;5073595;28;20403;-72
2023/09/12 05:22:45;;;;;;;1999.90;999.90;;;20.60;99.90;;;;;;5081544;28;20436;-74
2023/09/12 05:25:12;;;;;;;1999.90;999.90;;;20.50;99.90;;;;;;5091925;28;20946;-75
2023/09/12 05:27:39;;;;;;;1999.90;999.90;;;20.60;99.90;;;;;;5087401;28;20431;-72
2023/09/12 05:30:08;;;;;;;1999.90;999.90;;;20.60;99.90;;;;;;5073649;28;20411;-74
2023/09/12 05:32:36;;;;;;;1999.90;999.90;;;20.60;99.90;;;;;;5073205;28;20418;-75
2023/09/12 05:35:03;;;;;;;1999.90;999.90;;;20.70;99.90;;;;;;5078430;28;20983;-74
2023/09/12 05:37:30;;;;;;;1999.90;999.90;;;20.90;99.90;;;;;;5080515;28;20469;-75
2023/09/12 05:39:56;;;;;;;1999.90;999.90;;;21.00;99.90;;;;;;5073604;28;20412;-75
2023/09/12 05:42:23;;;;;;;1999.90;999.90;;;20.90;99.90;;;;;;5073287;28;20893;-74
2023/09/12 05:44:53;;;;;;;1999.90;999.90;;;21.00;99.90;;;;;;5073545;28;20419;-74
2023/09/12 05:47:21;;;;;;;1999.90;999.90;;;20.90;99.90;;;;;;5079831;28;20424;-74
2023/09/12 05:49:48;;;;;;;1999.90;999.90;;;21.10;99.90;;;;;;5078918;28;20418;-71
2023/09/12 05:52:15;;;;;;;1999.90;999.90;;;21.10;99.90;;;;;;5093028;28;20418;-74
2023/09/12 05:54:42;;;;;;;1999.90;999.90;;;21.20;99.90;;;;;;5093942;28;20452;-74
2023/09/12 05:57:09;;;;;;;1999.90;999.90;;;21.40;99.90;;;;;;5093454;28;20417;-75
2023/09/12 05:59:39;;;;;;;1999.90;999.90;;;21.30;99.90;;;;;;5086925;28;20427;-74
2023/09/12 06:02:08;;;;;;;1999.90;999.90;;;21.40;99.90;;;;;;5080837;28;20451;-76
2023/09/12 06:04:36;;;;;;;1999.90;999.90;;;21.50;99.90;;;;;;5073278;28;20422;-75
2023/09/12 06:07:04;;;;;;;1999.90;999.90;;;21.70;99.90;;;;;;5072892;28;20424;-74
2023/09/12 06:09:30;;;;;;;1999.90;999.90;;;21.80;99.90;;;;;;5072721;28;20420;-75
2023/09/12 06:11:57;;;;;;;1999.90;999.90;;;22.00;99.90;;;;;;5076973;28;20431;-74
2023/09/12 06:14:24;;;;;;;1999.90;999.90;;;22.10;99.90;;;;;;5080759;28;20418;-76
2023/09/12 06:16:51;;;;;;;1999.90;999.90;;;22.10;99.90;;;;;;5072606;28;20408;-75
2023/09/12 06:19:19;;;;;;;1999.90;999.90;;;22.60;99.90;;;;;;5072777;28;20412;-74
2023/09/12 06:21:47;;;;;;;1999.90;999.90;;;22.50;99.90;;;;;;5072559;28;20407;-72
2023/09/12 06:24:16;;;;;;;1999.90;999.90;;;22.50;99.90;;;;;;5085149;28;20425;-73
2023/09/12 06:26:43;;;;;;;1999.90;999.90;;;22.60;99.90;;;;;;5084349;28;20405;-74
2023/09/12 06:29:10;;;;;;;1999.90;999.90;;;22.70;99.90;;;;;;5092719;28;20424;-73
2023/09/12 06:31:37;;;;;;;1999.90;999.90;;;22.90;99.90;;;;;;5092473;28;21058;-75
2023/09/12 06:34:04;;;;;;;1999.90;999.90;;;22.90;99.90;;;;;;5092503;28;20416;-73
2023/09/12 06:36:31;;;;;;;1999.90;999.90;;;23.20;99.90;;;;;;5083570;28;20433;-73
2023/09/12 06:39:00;;;;;;;1999.90;999.90;;;23.30;99.90;;;;;;5092576;28;20403;-73
2023/09/12 06:41:28;;;;;;;1999.90;999.90;;;23.30;99.90;;;;;;5092369;28;20410;-72
2023/09/12 06:43:56;;;;;;;1999.90;999.90;;;23.40;99.90;;;;;;5092328;28;20421;-73
2023/09/12 06:46:23;;;;;;;1999.90;999.90;;;23.30;99.90;;;;;;5092391;28;20926;-69
2023/09/12 06:48:50;;;;;;;1999.90;999.90;;;23.60;99.90;;;;;;5084026;28;20426;-76
2023/09/12 06:51:18;;;;;;;1999.90;999.90;;;23.60;99.90;;;;;;5082809;28;20409;-73
2023/09/12 06:53:44;;;;;;;1999.90;999.90;;;23.50;99.90;;;;;;5092384;28;20789;-71
2023/09/12 06:56:13;;;;;;;1999.90;999.90;;;23.60;99.90;;;;;;5092394;28;20410;-74
2023/09/12 06:58:39;;;;;;;1999.90;999.90;;;23.70;99.90;;;;;;5092463;28;20816;-73
2023/09/12 07:01:07;;;;;;;1999.90;999.90;;;23.80;99.90;;;;;;5092206;28;20410;-71
2023/09/12 07:03:35;;;;;;;1999.90;999.90;;;23.90;99.90;;;;;;5093038;28;20461;-73
2023/09/12 07:06:02;;;;;;;1999.90;999.90;;;24.20;99.90;;;;;;5090270;28;20421;-73
2023/09/12 07:08:31;;;;;;;1999.90;999.90;;;24.40;99.90;;;;;;5092120;28;20462;-73
2023/09/12 07:10:58;;;;;;;1999.90;999.90;;;24.40;99.90;;;;;;5092797;28;20410;-73
2023/09/12 07:13:26;;;;;;;1999.90;999.90;;;24.40;99.90;;;;;;5092881;28;20420;-72
2023/09/12 07:15:53;;;;;;;1999.90;999.90;;;24.40;99.90;;;;;;5091327;28;20437;-73
2023/09/12 07:18:20;;;;;;;1999.90;999.90;;;24.50;99.90;;;;;;5080729;28;20787;-74
2023/09/12 07:20:47;;;;;;;1999.90;999.90;;;24.60;99.90;;;;;;5077554;28;20803;-72
2023/09/12 07:23:13;;;;;;;1999.90;999.90;;;24.40;99.90;;;;;;5073090;28;20415;-72
2023/09/12 07:25:41;;;;;;;1999.90;999.90;;;24.00;99.90;;;;;;5071296;28;20411;-73
2023/09/12 07:28:08;;;;;;;1999.90;999.90;;;23.70;99.90;;;;;;5071478;28;20426;-73
2023/09/12 07:30:37;;;;;;;1999.90;999.90;;;23.30;99.90;;;;;;5075105;28;20826;-71
2023/09/12 07:33:04;;;;;;;1999.90;999.90;;;23.10;99.90;;;;;;5079571;28;20510;-71
2023/09/12 07:35:31;;;;;;;1999.90;999.90;;;23.00;99.90;;;;;;5078266;28;20437;-73
2023/09/12 07:37:58;;;;;;;1999.90;999.90;;;23.00;99.90;;;;;;5075741;28;20506;-71
2023/09/12 07:40:25;;;;;;;1999.90;999.90;;;23.10;99.90;;;;;;5071283;28;20590;-73
2023/09/12 07:42:51;;;;;;;1999.90;999.90;;;23.10;99.90;;;;;;5077505;28;20437;-74
2023/09/12 07:45:20;;;;;;;1999.90;999.90;;;23.20;99.90;;;;;;5082305;28;20432;-73
2023/09/12 07:47:48;;;;;;;1999.90;999.90;;;23.40;99.90;;;;;;5077172;28;20426;-73
2023/09/12 07:50:15;;;;;;;1999.90;999.90;;;23.60;99.90;;;;;;5070879;28;20510;-73
2023/09/12 07:52:42;;;;;;;1999.90;999.90;;;23.90;99.90;;;;;;5070500;28;20413;-73
2023/09/12 07:55:10;;;;;;;1999.90;999.90;;;24.00;99.90;;;;;;5071127;28;20422;-73
2023/09/12 07:57:37;;;;;;;1999.90;999.90;;;23.80;99.90;;;;;;5076353;28;20423;-73
2023/09/12 08:00:10;;;;;;;1999.90;999.90;;;23.80;99.90;;;;;;5078458;28;20432;-73
2023/09/12 08:02:37;;;;;;;1999.90;999.90;;;23.80;99.90;;;;;;5083573;28;20479;-73
2023/09/12 08:05:06;;;;;;;1999.90;999.90;;;23.80;99.90;;;;;;5091023;28;20428;-74
2023/09/12 08:07:32;;;;;;;1999.90;999.90;;;23.80;99.90;;;;;;5090758;28;20426;-74
2023/09/12 08:09:59;;;;;;;1999.90;999.90;;;23.80;99.90;;;;;;5089592;28;20444;-72
2023/09/12 08:12:28;;;;;;;1999.90;999.90;;;24.00;99.90;;;;;;5080303;28;20510;-74
2023/09/12 08:14:56;;;;;;;1999.90;999.90;;;24.10;99.90;;;;;;5075789;28;20483;-74
2023/09/12 08:17:23;;;;;;;1999.90;999.90;;;24.50;99.90;;;;;;5070642;28;20408;-74
2023/09/12 08:19:50;;;;;;;1999.90;999.90;;;24.90;99.90;;;;;;5070371;28;20443;-71
2023/09/12 08:22:19;;;;;;;1999.90;999.90;;;25.00;99.90;;;;;;5070403;28;20400;-74
2023/09/12 08:24:46;;;;;;;1999.90;999.90;;;25.30;99.90;;;;;;5071719;28;20415;-74
2023/09/12 08:27:13;;;;;;;1999.90;999.90;;;25.40;99.90;;;;;;5081521;28;20493;-71
2023/09/12 08:29:41;;;;;;;1999.90;999.90;;;25.50;99.90;;;;;;5070197;28;20506;-73
2023/09/12 08:32:08;;;;;;;1999.90;999.90;;;25.70;99.90;;;;;;5070167;28;20502;-74
2023/09/12 08:34:34;;;;;;;1999.90;999.90;;;25.90;99.90;;;;;;5076282;28;20432;-72
2023/09/12 08:37:01;;;;;;;1999.90;999.90;;;26.20;99.90;;;;;;5084813;28;20429;-74
2023/09/12 08:39:41;;;;;;;1999.90;999.90;;;26.00;99.90;;;;;;5088515;28;20444;-74
2023/09/12 08:42:12;;;;;;;1999.90;999.90;;;25.90;99.90;;;;;;5083965;28;20433;-76
2023/09/12 08:44:39;;;;;;;1999.90;999.90;;;25.80;99.90;;;;;;5089137;28;21056;-74
2023/09/12 08:47:08;;;;;;;1999.90;999.90;;;25.80;99.90;;;;;;5089422;28;20430;-73
2023/09/12 08:49:37;;;;;;;1999.90;999.90;;;25.80;99.90;;;;;;5088833;28;20417;-73
2023/09/12 08:52:04;;;;;;;1999.90;999.90;;;25.80;99.90;;;;;;5081573;28;20432;-71
2023/09/12 08:54:32;;;;;;;1999.90;999.90;;;25.90;99.90;;;;;;5089007;28;20425;-74
2023/09/12 08:57:02;;;;;;;1999.90;999.90;;;26.00;99.90;;;;;;5088893;28;20438;-73
2023/09/12 08:59:29;;;;;;;1999.90;999.90;;;26.10;99.90;;;;;;5088216;28;20425;-74
2023/09/12 09:01:58;;;;;;;1999.90;999.90;;;26.40;99.90;;;;;;5077953;28;20459;-77
2023/09/12 09:04:26;;;;;;;1999.90;999.90;;;26.60;99.90;;;;;;5072190;28;20419;-74
2023/09/12 09:06:54;;;;;;;1999.90;999.90;;;26.50;99.90;;;;;;5087845;28;20422;-72
2023/09/12 09:09:23;;;;;;;1999.90;999.90;;;26.60;99.90;;;;;;5088675;28;20513;-73
2023/09/12 09:11:52;;;;;;;1999.90;999.90;;;26.90;99.90;;;;;;5088246;28;20939;-73
2023/09/12 09:14:18;;;;;;;1999.90;999.90;;;27.00;99.90;;;;;;5079495;28;20507;-73
2023/09/12 09:16:45;;;;;;;1999.90;999.90;;;26.90;99.90;;;;;;5088209;28;20504;-73
2023/09/12 09:19:12;;;;;;;1999.90;999.90;;;26.70;99.90;;;;;;5086916;28;20428;-73
2023/09/12 09:21:40;;;;;;;1999.90;999.90;;;26.80;99.90;;;;;;5087606;28;20432;-72
2023/09/12 09:24:09;;;;;;;1999.90;999.90;;;27.00;99.90;;;;;;5084089;28;20585;-74
2023/09/12 09:26:46;;;;;;;1999.90;999.90;;;27.10;99.90;;;;;;5081859;28;20423;-73
2023/09/12 09:29:17;;;;;;;1999.90;999.90;;;27.10;99.90;;;;;;5089997;28;20449;-75
2023/09/12 09:31:45;;;;;;;1999.90;999.90;;;27.20;99.90;;;;;;5088671;28;20518;-74
2023/09/12 09:34:14;;;;;;;1999.90;999.90;;;27.30;99.90;;;;;;5089741;28;20420;-73
2023/09/12 09:36:44;;;;;;;1999.90;999.90;;;27.60;99.90;;;;;;5093600;28;20410;-73
2023/09/12 09:39:12;;;;;;;1999.90;999.90;;;27.80;99.90;;;;;;5093593;28;20493;-73
2023/09/12 09:41:39;;;;;;;1999.90;999.90;;;27.40;98.90;;;;;;5089499;28;20522;-73
2023/09/12 09:44:07;;;;;;;1999.90;999.90;;;27.60;99.50;;;;;;5088599;28;20429;-73
2023/09/12 09:46:36;;;;;;;1999.90;999.90;;;27.70;99.90;;;;;;5088996;28;20433;-73
2023/09/12 09:49:03;;;;;;;1999.90;999.90;;;27.70;99.40;;;;;;5082217;28;20423;-74
2023/09/12 09:51:32;;;;;;;1999.90;999.90;;;27.20;99.90;;;;;;5073615;28;20407;-73
2023/09/12 09:54:00;;;;;;;1999.90;999.90;;;27.20;99.90;;;;;;5073641;28;20418;-74
2023/09/12 09:56:27;;;;;;;1999.90;999.90;;;27.50;99.90;;;;;;5073125;28;20793;-71
2023/09/12 09:58:55;;;;;;;1999.90;999.90;;;27.70;99.70;;;;;;5073415;28;20424;-74
2023/09/12 10:01:22;;;;;;;1999.90;999.90;;;27.80;99.70;;;;;;5081119;28;20486;-73
2023/09/12 10:03:51;;;;;;;1999.90;999.90;;;27.90;99.10;;;;;;5076455;28;20433;-73
2023/09/12 10:06:20;;;;;;;1999.90;999.90;;;27.90;99.00;;;;;;5082644;28;20440;-73
2023/09/12 10:08:51;;;;;;;1999.90;999.90;;;27.90;98.90;;;;;;5090524;28;20453;-74
2023/09/12 10:11:19;;;;;;;1999.90;999.90;;;27.50;99.20;;;;;;5089849;28;20934;-73
2023/09/12 10:13:53;;;;;;;1999.90;999.90;;;27.20;99.60;;;;;;5087946;28;20532;-74
2023/09/12 10:16:24;;;;;;;1999.90;999.90;;;27.20;99.60;;;;;;5090378;28;20778;-72
2023/09/12 10:18:59;;;;;;;1999.90;999.90;;;27.20;99.90;;;;;;5084506;28;20854;-74
2023/09/12 10:21:31;;;;;;;1999.90;999.90;;;27.10;99.90;;;;;;5089825;28;20430;-73
2023/09/12 10:24:00;;;;;;;1999.90;999.90;;;27.30;99.90;;;;;;5088189;28;20791;-73
2023/09/12 10:26:27;;;;;;;1999.90;999.90;;;27.30;99.40;;;;;;5084585;28;20432;-73
2023/09/12 10:28:56;;;;;;;1999.90;999.90;;;27.20;99.90;;;;;;5090990;28;20418;-73
2023/09/12 10:31:25;;;;;;;1999.90;999.90;;;27.30;99.90;;;;;;5086099;28;20432;-72
2023/09/12 10:33:53;;;;;;;1999.90;999.90;;;27.70;99.90;;;;;;5079509;28;20430;-73
2023/09/12 10:36:21;;;;;;;1999.90;999.90;;;28.00;99.40;;;;;;5091044;28;21009;-74
2023/09/12 10:38:49;;;;;;;1999.90;999.90;;;28.20;98.50;;;;;;5080448;28;20506;-74
2023/09/12 10:41:17;;;;;;;1999.90;999.90;;;28.30;98.20;;;;;;5076288;28;20515;-76
2023/09/12 10:43:49;;;;;;;1999.90;999.90;;;28.30;98.20;;;;;;5090901;28;20426;-73
2023/09/12 10:46:16;;;;;;;1999.90;999.90;;;27.70;98.40;;;;;;5091381;28;20509;-74
2023/09/12 10:48:43;;;;;;;1999.90;999.90;;;27.50;99.20;;;;;;5083721;28;20436;-74
2023/09/12 10:51:13;;;;;;;1999.90;999.90;;;27.00;98.40;;;;;;5087021;28;20476;-74
2023/09/12 10:53:45;;;;;;;1999.90;999.90;;;27.50;99.40;;;;;;5080385;28;20429;-73
2023/09/12 10:56:18;;;;;;;1999.90;999.90;;;27.10;99.90;;;;;;5072006;28;20423;-73
2023/09/12 10:59:12;;;;;;;1999.90;999.90;;;27.20;99.70;;;;;;5081681;28;20453;-74
2023/09/12 11:01:39;;;;;;;1999.90;999.90;;;27.40;98.10;;;;;;5089493;28;20434;-74
2023/09/12 11:04:37;;;;;;;1999.90;999.90;;;27.50;98.10;;;;;;5090052;28;20421;-72
2023/09/12 11:07:31;;;;;;;1999.90;999.90;;;27.60;98.30;;;;;;5084558;28;20485;-72
2023/09/12 11:10:19;;;;;;;1999.90;999.90;;;27.90;97.50;;;;;;5073338;28;20510;-72
2023/09/12 11:12:48;;;;;;;1999.90;999.90;;;27.80;98.40;;;;;;5089852;28;20453;-74
2023/09/12 11:15:16;;;;;;;1999.90;999.90;;;27.70;99.50;;;;;;5088902;28;20429;-73
2023/09/12 11:17:44;;;;;;;1999.90;999.90;;;27.30;99.20;;;;;;5084902;28;20425;-73
2023/09/12 11:20:11;;;;;;;1999.90;999.90;;;27.60;98.90;;;;;;5081842;28;20427;-75
2023/09/12 11:22:41;;;;;;;1999.90;999.90;;;27.80;99.30;;;;;;5089530;28;20434;-73
2023/09/12 11:25:17;;;;;;;1999.90;999.90;;;27.90;98.70;;;;;;5082016;28;20935;-74
2023/09/12 11:28:04;;;;;;;1999.90;999.90;;;28.00;98.90;;;;;;5088953;28;20429;-74
2023/09/12 11:30:31;;;;;;;1999.90;999.90;;;28.10;99.30;;;;;;5081037;28;20427;-75
2023/09/12 11:33:00;;;;;;;1999.90;999.90;;;28.60;99.40;;;;;;5088846;28;20429;-72
2023/09/12 11:35:29;;;;;;;1999.90;999.90;;;28.80;99.90;;;;;;5086793;28;20490;-74
2023/09/12 11:37:59;;;;;;;1999.90;999.90;;;28.80;99.90;;;;;;5088893;28;20420;-73
2023/09/12 11:40:27;;;;;;;1999.90;999.90;;;28.40;99.90;;;;;;5082606;28;20435;-73
2023/09/12 11:42:54;;;;;;;1999.90;999.90;;;27.80;99.90;;;;;;5085711;28;20434;-73
2023/09/12 11:45:23;;;;;;;1999.90;999.90;;;27.40;99.90;;;;;;5076830;28;20438;-73
2023/09/12 11:47:50;;;;;;;1999.90;999.90;;;27.10;99.90;;;;;;5088480;28;20512;-73
2023/09/12 11:50:30;;;;;;;1999.90;999.90;;;26.80;99.90;;;;;;5083739;28;20441;-73
2023/09/12 11:53:04;;;;;;;1999.90;999.90;;;26.90;99.90;;;;;;5088350;28;20429;-73
2023/09/12 11:55:33;;;;;;;1999.90;999.90;;;26.70;99.90;;;;;;5087209;28;20456;-73
2023/09/12 11:57:59;;;;;;;1999.90;999.90;;;26.70;99.90;;;;;;5077733;28;20986;-72
2023/09/12 12:00:27;;;;;;;1999.90;999.90;;;26.60;99.90;;;;;;5084356;28;20419;-73
2023/09/12 12:02:54;;;;;;;1999.90;999.90;;;26.50;99.90;;;;;;5083792;28;20433;-73